sensor_id;sensor_type;location;lat;lon;timestamp;pressure;altitude;pressure_sealevel;temperature
12875;BMP180;6505;51.114;13.128;2023-04-24T00:01:42;98308.00;;;20.30
12875;BMP180;6505;51.114;13.128;2023-04-24T00:04:10;98303.00;;;20.30
12875;BMP180;6505;51.114;13.128;2023-04-24T00:06:41;98304.00;;;20.30
12875;BMP180;6505;51.114;13.128;2023-04-24T00:09:10;98299.00;;;20.30
12875;BMP180;6505;51.114;13.128;2023-04-24T00:11:38;98289.00;;;20.30
12875;BMP180;6505;51.114;13.128;2023-04-24T00:14:06;98288.00;;;20.30
12875;BMP180;6505;51.114;13.128;2023-04-24T00:16:34;98278.00;;;20.30
12875;BMP180;6505;51.114;13.128;2023-04-24T00:19:02;98281.00;;;20.30
12875;BMP180;6505;51.114;13.128;2023-04-24T00:21:31;98273.00;;;20.30
12875;BMP180;6505;51.114;13.128;2023-04-24T00:23:59;98278.00;;;20.30
12875;BMP180;6505;51.114;13.128;2023-04-24T00:26:28;98275.00;;;20.20
12875;BMP180;6505;51.114;13.128;2023-04-24T00:28:56;98273.00;;;20.30
12875;BMP180;6505;51.114;13.128;2023-04-24T00:31:26;98273.00;;;20.20
12875;BMP180;6505;51.114;13.128;2023-04-24T00:33:54;98263.00;;;20.30
12875;BMP180;6505;51.114;13.128;2023-04-24T00:36:21;98261.00;;;20.20
12875;BMP180;6505;51.114;13.128;2023-04-24T00:38:50;98264.00;;;20.20
12875;BMP180;6505;51.114;13.128;2023-04-24T00:41:17;98280.00;;;20.20
12875;BMP180;6505;51.114;13.128;2023-04-24T00:43:47;98280.00;;;20.20
12875;BMP180;6505;51.114;13.128;2023-04-24T00:46:16;98270.00;;;20.20
12875;BMP180;6505;51.114;13.128;2023-04-24T00:48:44;98274.00;;;20.20
12875;BMP180;6505;51.114;13.128;2023-04-24T00:51:12;98275.00;;;20.20
12875;BMP180;6505;51.114;13.128;2023-04-24T00:53:40;98278.00;;;20.20
12875;BMP180;6505;51.114;13.128;2023-04-24T00:56:09;98266.00;;;20.20
12875;BMP180;6505;51.114;13.128;2023-04-24T00:58:37;98278.00;;;20.20
12875;BMP180;6505;51.114;13.128;2023-04-24T01:01:09;98278.00;;;20.20
12875;BMP180;6505;51.114;13.128;2023-04-24T01:03:39;98280.00;;;20.20
12875;BMP180;6505;51.114;13.128;2023-04-24T01:06:09;98269.00;;;20.20
12875;BMP180;6505;51.114;13.128;2023-04-24T01:08:39;98260.00;;;20.10
12875;BMP180;6505;51.114;13.128;2023-04-24T01:11:07;98272.00;;;20.10
12875;BMP180;6505;51.114;13.128;2023-04-24T01:13:35;98269.00;;;20.10
12875;BMP180;6505;51.114;13.128;2023-04-24T01:16:03;98266.00;;;20.10
12875;BMP180;6505;51.114;13.128;2023-04-24T01:18:35;98267.00;;;20.10
12875;BMP180;6505;51.114;13.128;2023-04-24T01:21:04;98267.00;;;20.10
12875;BMP180;6505;51.114;13.128;2023-04-24T01:23:33;98268.00;;;20.10
12875;BMP180;6505;51.114;13.128;2023-04-24T01:26:01;98261.00;;;20.10
12875;BMP180;6505;51.114;13.128;2023-04-24T01:28:30;98264.00;;;20.10
12875;BMP180;6505;51.114;13.128;2023-04-24T01:30:58;98268.00;;;20.10
12875;BMP180;6505;51.114;13.128;2023-04-24T01:33:27;98260.00;;;20.10
12875;BMP180;6505;51.114;13.128;2023-04-24T01:35:55;98273.00;;;20.10
12875;BMP180;6505;51.114;13.128;2023-04-24T01:38:23;98263.00;;;20.10
12875;BMP180;6505;51.114;13.128;2023-04-24T01:40:53;98272.00;;;20.10
12875;BMP180;6505;51.114;13.128;2023-04-24T01:43:21;98271.00;;;20.10
12875;BMP180;6505;51.114;13.128;2023-04-24T01:45:49;98265.00;;;20.10
12875;BMP180;6505;51.114;13.128;2023-04-24T01:48:18;98271.00;;;20.10
12875;BMP180;6505;51.114;13.128;2023-04-24T01:50:46;98267.00;;;20.00
12875;BMP180;6505;51.114;13.128;2023-04-24T01:53:14;98269.00;;;20.10
12875;BMP180;6505;51.114;13.128;2023-04-24T01:55:42;98273.00;;;20.10
12875;BMP180;6505;51.114;13.128;2023-04-24T01:58:13;98264.00;;;20.00
12875;BMP180;6505;51.114;13.128;2023-04-24T02:00:41;98260.00;;;20.00
12875;BMP180;6505;51.114;13.128;2023-04-24T02:03:09;98264.00;;;20.00
12875;BMP180;6505;51.114;13.128;2023-04-24T02:05:38;98270.00;;;20.00
12875;BMP180;6505;51.114;13.128;2023-04-24T02:08:05;98271.00;;;20.00
12875;BMP180;6505;51.114;13.128;2023-04-24T02:10:36;98264.00;;;20.00
12875;BMP180;6505;51.114;13.128;2023-04-24T02:13:04;98264.00;;;20.00
12875;BMP180;6505;51.114;13.128;2023-04-24T02:15:34;98263.00;;;20.00
12875;BMP180;6505;51.114;13.128;2023-04-24T02:18:03;98270.00;;;20.00
12875;BMP180;6505;51.114;13.128;2023-04-24T02:20:31;98280.00;;;20.00
12875;BMP180;6505;51.114;13.128;2023-04-24T02:23:00;98272.00;;;20.00
12875;BMP180;6505;51.114;13.128;2023-04-24T02:25:28;98273.00;;;20.00
12875;BMP180;6505;51.114;13.128;2023-04-24T02:27:56;98268.00;;;20.00
12875;BMP180;6505;51.114;13.128;2023-04-24T02:30:25;98266.00;;;20.00
12875;BMP180;6505;51.114;13.128;2023-04-24T02:32:55;98275.00;;;20.00
12875;BMP180;6505;51.114;13.128;2023-04-24T02:35:22;98267.00;;;20.00
12875;BMP180;6505;51.114;13.128;2023-04-24T02:37:51;98264.00;;;19.90
12875;BMP180;6505;51.114;13.128;2023-04-24T02:40:19;98273.00;;;19.90
12875;BMP180;6505;51.114;13.128;2023-04-24T02:42:47;98273.00;;;19.90
12875;BMP180;6505;51.114;13.128;2023-04-24T02:45:15;98267.00;;;19.90
12875;BMP180;6505;51.114;13.128;2023-04-24T02:47:43;98270.00;;;19.90
12875;BMP180;6505;51.114;13.128;2023-04-24T02:50:13;98274.00;;;19.90
12875;BMP180;6505;51.114;13.128;2023-04-24T02:52:41;98258.00;;;19.90
12875;BMP180;6505;51.114;13.128;2023-04-24T02:55:09;98275.00;;;19.90
12875;BMP180;6505;51.114;13.128;2023-04-24T02:57:37;98264.00;;;19.90
12875;BMP180;6505;51.114;13.128;2023-04-24T03:00:07;98270.00;;;19.90
12875;BMP180;6505;51.114;13.128;2023-04-24T03:02:35;98266.00;;;19.90
12875;BMP180;6505;51.114;13.128;2023-04-24T03:05:05;98262.00;;;19.90
12875;BMP180;6505;51.114;13.128;2023-04-24T03:07:35;98268.00;;;19.90
12875;BMP180;6505;51.114;13.128;2023-04-24T03:10:05;98263.00;;;19.90
12875;BMP180;6505;51.114;13.128;2023-04-24T03:12:33;98262.00;;;19.90
12875;BMP180;6505;51.114;13.128;2023-04-24T03:15:02;98270.00;;;19.90
12875;BMP180;6505;51.114;13.128;2023-04-24T03:17:30;98267.00;;;19.90
12875;BMP180;6505;51.114;13.128;2023-04-24T03:19:58;98272.00;;;19.90
12875;BMP180;6505;51.114;13.128;2023-04-24T03:22:26;98278.00;;;19.90
12875;BMP180;6505;51.114;13.128;2023-04-24T03:24:55;98287.00;;;19.80
12875;BMP180;6505;51.114;13.128;2023-04-24T03:27:24;98270.00;;;19.80
12875;BMP180;6505;51.114;13.128;2023-04-24T03:29:59;98270.00;;;19.80
12875;BMP180;6505;51.114;13.128;2023-04-24T03:32:43;98267.00;;;19.80
12875;BMP180;6505;51.114;13.128;2023-04-24T03:35:14;98268.00;;;19.80
12875;BMP180;6505;51.114;13.128;2023-04-24T03:37:42;98266.00;;;19.80
12875;BMP180;6505;51.114;13.128;2023-04-24T03:40:32;98274.00;;;19.80
12875;BMP180;6505;51.114;13.128;2023-04-24T03:43:01;98269.00;;;19.80
12875;BMP180;6505;51.114;13.128;2023-04-24T03:45:29;98279.00;;;19.80
12875;BMP180;6505;51.114;13.128;2023-04-24T03:47:57;98279.00;;;19.70
12875;BMP180;6505;51.114;13.128;2023-04-24T03:50:25;98283.00;;;19.70
12875;BMP180;6505;51.114;13.128;2023-04-24T03:52:55;98271.00;;;19.70
12875;BMP180;6505;51.114;13.128;2023-04-24T03:55:35;98282.00;;;19.70
12875;BMP180;6505;51.114;13.128;2023-04-24T03:58:03;98282.00;;;19.70
12875;BMP180;6505;51.114;13.128;2023-04-24T04:00:31;98278.00;;;19.70
12875;BMP180;6505;51.114;13.128;2023-04-24T04:03:19;98272.00;;;19.70
12875;BMP180;6505;51.114;13.128;2023-04-24T04:05:48;98265.00;;;19.70
12875;BMP180;6505;51.114;13.128;2023-04-24T04:08:16;98284.00;;;19.70
12875;BMP180;6505;51.114;13.128;2023-04-24T04:10:45;98274.00;;;19.60
12875;BMP180;6505;51.114;13.128;2023-04-24T04:13:13;98263.00;;;19.60
12875;BMP180;6505;51.114;13.128;2023-04-24T04:15:41;98278.00;;;19.60
12875;BMP180;6505;51.114;13.128;2023-04-24T04:18:09;98274.00;;;19.60
12875;BMP180;6505;51.114;13.128;2023-04-24T04:20:38;98272.00;;;19.60
12875;BMP180;6505;51.114;13.128;2023-04-24T04:23:06;98278.00;;;19.60
12875;BMP180;6505;51.114;13.128;2023-04-24T04:25:46;98266.00;;;19.60
12875;BMP180;6505;51.114;13.128;2023-04-24T04:28:16;98267.00;;;19.60
12875;BMP180;6505;51.114;13.128;2023-04-24T04:30:47;98268.00;;;19.60
12875;BMP180;6505;51.114;13.128;2023-04-24T04:33:17;98270.00;;;19.60
12875;BMP180;6505;51.114;13.128;2023-04-24T04:35:46;98266.00;;;19.60
12875;BMP180;6505;51.114;13.128;2023-04-24T04:38:15;98269.00;;;19.60
12875;BMP180;6505;51.114;13.128;2023-04-24T04:40:57;98271.00;;;19.60
12875;BMP180;6505;51.114;13.128;2023-04-24T04:43:28;98268.00;;;19.60
12875;BMP180;6505;51.114;13.128;2023-04-24T04:45:58;98292.00;;;19.60
12875;BMP180;6505;51.114;13.128;2023-04-24T04:48:30;98279.00;;;19.60
12875;BMP180;6505;51.114;13.128;2023-04-24T04:51:01;98293.00;;;19.50
12875;BMP180;6505;51.114;13.128;2023-04-24T04:53:29;98295.00;;;19.50
12875;BMP180;6505;51.114;13.128;2023-04-24T04:55:58;98289.00;;;19.50
12875;BMP180;6505;51.114;13.128;2023-04-24T04:58:34;98285.00;;;19.50
12875;BMP180;6505;51.114;13.128;2023-04-24T05:01:03;98283.00;;;19.50
12875;BMP180;6505;51.114;13.128;2023-04-24T05:03:36;98284.00;;;19.50
12875;BMP180;6505;51.114;13.128;2023-04-24T05:06:08;98280.00;;;19.50
12875;BMP180;6505;51.114;13.128;2023-04-24T05:08:39;98273.00;;;19.50
12875;BMP180;6505;51.114;13.128;2023-04-24T05:11:13;98284.00;;;19.50
12875;BMP180;6505;51.114;13.128;2023-04-24T05:13:41;98284.00;;;19.50
12875;BMP180;6505;51.114;13.128;2023-04-24T05:16:19;98284.00;;;19.50
12875;BMP180;6505;51.114;13.128;2023-04-24T05:18:49;98289.00;;;19.50
12875;BMP180;6505;51.114;13.128;2023-04-24T05:21:21;98284.00;;;19.50
12875;BMP180;6505;51.114;13.128;2023-04-24T05:23:51;98288.00;;;19.50
12875;BMP180;6505;51.114;13.128;2023-04-24T05:26:37;98298.00;;;19.50
12875;BMP180;6505;51.114;13.128;2023-04-24T05:29:06;98299.00;;;19.50
12875;BMP180;6505;51.114;13.128;2023-04-24T05:31:34;98298.00;;;19.50
12875;BMP180;6505;51.114;13.128;2023-04-24T05:34:02;98304.00;;;19.50
12875;BMP180;6505;51.114;13.128;2023-04-24T05:36:30;98300.00;;;19.50
12875;BMP180;6505;51.114;13.128;2023-04-24T05:38:59;98302.00;;;19.50
12875;BMP180;6505;51.114;13.128;2023-04-24T05:41:27;98309.00;;;19.50
12875;BMP180;6505;51.114;13.128;2023-04-24T05:43:56;98306.00;;;19.50
12875;BMP180;6505;51.114;13.128;2023-04-24T05:46:24;98312.00;;;19.50
12875;BMP180;6505;51.114;13.128;2023-04-24T05:48:52;98320.00;;;19.50
12875;BMP180;6505;51.114;13.128;2023-04-24T05:51:20;98317.00;;;19.50
12875;BMP180;6505;51.114;13.128;2023-04-24T05:53:48;98315.00;;;19.50
12875;BMP180;6505;51.114;13.128;2023-04-24T05:56:16;98314.00;;;19.50
12875;BMP180;6505;51.114;13.128;2023-04-24T05:58:46;98323.00;;;19.50
12875;BMP180;6505;51.114;13.128;2023-04-24T06:01:15;98319.00;;;19.50
12875;BMP180;6505;51.114;13.128;2023-04-24T06:03:47;98323.00;;;19.60
12875;BMP180;6505;51.114;13.128;2023-04-24T06:06:15;98319.00;;;19.60
12875;BMP180;6505;51.114;13.128;2023-04-24T06:08:43;98325.00;;;19.60
12875;BMP180;6505;51.114;13.128;2023-04-24T06:11:12;98318.00;;;19.60
12875;BMP180;6505;51.114;13.128;2023-04-24T06:13:40;98320.00;;;19.60
12875;BMP180;6505;51.114;13.128;2023-04-24T06:16:30;98330.00;;;19.60
12875;BMP180;6505;51.114;13.128;2023-04-24T06:19:04;98319.00;;;19.60
12875;BMP180;6505;51.114;13.128;2023-04-24T06:21:32;98312.00;;;19.60
12875;BMP180;6505;51.114;13.128;2023-04-24T06:24:00;98319.00;;;19.70
12875;BMP180;6505;51.114;13.128;2023-04-24T06:26:28;98319.00;;;19.70
12875;BMP180;6505;51.114;13.128;2023-04-24T06:28:57;98308.00;;;19.70
12875;BMP180;6505;51.114;13.128;2023-04-24T06:31:28;98319.00;;;19.70
12875;BMP180;6505;51.114;13.128;2023-04-24T06:33:56;98326.00;;;19.70
12875;BMP180;6505;51.114;13.128;2023-04-24T06:36:24;98322.00;;;19.70
12875;BMP180;6505;51.114;13.128;2023-04-24T06:38:51;98322.00;;;19.80
12875;BMP180;6505;51.114;13.128;2023-04-24T06:41:19;98323.00;;;19.80
12875;BMP180;6505;51.114;13.128;2023-04-24T06:43:47;98321.00;;;19.80
12875;BMP180;6505;51.114;13.128;2023-04-24T06:46:15;98325.00;;;19.80
12875;BMP180;6505;51.114;13.128;2023-04-24T06:48:45;98328.00;;;19.80
12875;BMP180;6505;51.114;13.128;2023-04-24T06:51:12;98333.00;;;19.90
12875;BMP180;6505;51.114;13.128;2023-04-24T06:53:40;98329.00;;;19.90
12875;BMP180;6505;51.114;13.128;2023-04-24T06:56:08;98323.00;;;19.90
12875;BMP180;6505;51.114;13.128;2023-04-24T06:58:36;98325.00;;;19.90
12875;BMP180;6505;51.114;13.128;2023-04-24T07:01:04;98314.00;;;19.90
12875;BMP180;6505;51.114;13.128;2023-04-24T07:03:33;98327.00;;;19.90
12875;BMP180;6505;51.114;13.128;2023-04-24T07:06:04;98314.00;;;20.00
12875;BMP180;6505;51.114;13.128;2023-04-24T07:08:32;98320.00;;;20.00
12875;BMP180;6505;51.114;13.128;2023-04-24T07:11:00;98315.00;;;20.00
12875;BMP180;6505;51.114;13.128;2023-04-24T07:13:28;98316.00;;;20.00
12875;BMP180;6505;51.114;13.128;2023-04-24T07:15:57;98306.00;;;20.00
12875;BMP180;6505;51.114;13.128;2023-04-24T07:18:25;98303.00;;;20.00
12875;BMP180;6505;51.114;13.128;2023-04-24T07:20:53;98314.00;;;20.00
12875;BMP180;6505;51.114;13.128;2023-04-24T07:23:22;98320.00;;;20.10
12875;BMP180;6505;51.114;13.128;2023-04-24T07:25:50;98319.00;;;20.10
12875;BMP180;6505;51.114;13.128;2023-04-24T07:28:18;98327.00;;;20.10
12875;BMP180;6505;51.114;13.128;2023-04-24T07:30:46;98327.00;;;20.10
12875;BMP180;6505;51.114;13.128;2023-04-24T07:33:14;98334.00;;;20.10
12875;BMP180;6505;51.114;13.128;2023-04-24T07:35:42;98335.00;;;20.10
12875;BMP180;6505;51.114;13.128;2023-04-24T07:38:10;98335.00;;;20.10
12875;BMP180;6505;51.114;13.128;2023-04-24T07:40:39;98338.00;;;20.10
12875;BMP180;6505;51.114;13.128;2023-04-24T07:43:07;98338.00;;;20.20
12875;BMP180;6505;51.114;13.128;2023-04-24T07:45:35;98335.00;;;20.20
12875;BMP180;6505;51.114;13.128;2023-04-24T07:48:04;98341.00;;;20.20
12875;BMP180;6505;51.114;13.128;2023-04-24T07:50:32;98343.00;;;20.20
12875;BMP180;6505;51.114;13.128;2023-04-24T07:53:01;98341.00;;;20.20
12875;BMP180;6505;51.114;13.128;2023-04-24T07:55:29;98337.00;;;20.20
12875;BMP180;6505;51.114;13.128;2023-04-24T07:57:59;98345.00;;;20.20
12875;BMP180;6505;51.114;13.128;2023-04-24T08:00:27;98346.00;;;20.30
12875;BMP180;6505;51.114;13.128;2023-04-24T08:02:54;98351.00;;;20.30
12875;BMP180;6505;51.114;13.128;2023-04-24T08:05:23;98353.00;;;20.30
12875;BMP180;6505;51.114;13.128;2023-04-24T08:07:53;98355.00;;;20.30
12875;BMP180;6505;51.114;13.128;2023-04-24T08:10:21;98358.00;;;20.30
12875;BMP180;6505;51.114;13.128;2023-04-24T08:12:50;98354.00;;;20.30
12875;BMP180;6505;51.114;13.128;2023-04-24T08:15:19;98362.00;;;20.30
12875;BMP180;6505;51.114;13.128;2023-04-24T08:17:47;98367.00;;;20.30
12875;BMP180;6505;51.114;13.128;2023-04-24T08:20:15;98366.00;;;20.30
12875;BMP180;6505;51.114;13.128;2023-04-24T08:22:43;98372.00;;;20.40
12875;BMP180;6505;51.114;13.128;2023-04-24T08:25:13;98376.00;;;20.40
12875;BMP180;6505;51.114;13.128;2023-04-24T08:27:41;98376.00;;;20.40
12875;BMP180;6505;51.114;13.128;2023-04-24T08:30:11;98363.00;;;20.40
12875;BMP180;6505;51.114;13.128;2023-04-24T08:32:40;98371.00;;;20.40
12875;BMP180;6505;51.114;13.128;2023-04-24T08:35:08;98369.00;;;20.40
12875;BMP180;6505;51.114;13.128;2023-04-24T08:37:37;98371.00;;;20.40
12875;BMP180;6505;51.114;13.128;2023-04-24T08:40:12;98371.00;;;20.40
12875;BMP180;6505;51.114;13.128;2023-04-24T08:42:42;98374.00;;;20.40
12875;BMP180;6505;51.114;13.128;2023-04-24T08:45:12;98380.00;;;20.40
12875;BMP180;6505;51.114;13.128;2023-04-24T08:47:42;98383.00;;;20.40
12875;BMP180;6505;51.114;13.128;2023-04-24T08:50:11;98379.00;;;20.40
12875;BMP180;6505;51.114;13.128;2023-04-24T08:52:41;98376.00;;;20.50
12875;BMP180;6505;51.114;13.128;2023-04-24T08:55:10;98377.00;;;20.50
12875;BMP180;6505;51.114;13.128;2023-04-24T08:57:38;98379.00;;;20.50
12875;BMP180;6505;51.114;13.128;2023-04-24T09:00:09;98380.00;;;20.50
12875;BMP180;6505;51.114;13.128;2023-04-24T09:02:42;98374.00;;;20.50
12875;BMP180;6505;51.114;13.128;2023-04-24T09:05:13;98378.00;;;20.50
12875;BMP180;6505;51.114;13.128;2023-04-24T09:07:46;98373.00;;;20.50
12875;BMP180;6505;51.114;13.128;2023-04-24T09:10:17;98375.00;;;20.50
12875;BMP180;6505;51.114;13.128;2023-04-24T09:12:46;98378.00;;;20.50
12875;BMP180;6505;51.114;13.128;2023-04-24T09:15:14;98374.00;;;20.50
12875;BMP180;6505;51.114;13.128;2023-04-24T09:17:44;98375.00;;;20.50
12875;BMP180;6505;51.114;13.128;2023-04-24T09:20:12;98375.00;;;20.60
12875;BMP180;6505;51.114;13.128;2023-04-24T09:22:41;98379.00;;;20.60
12875;BMP180;6505;51.114;13.128;2023-04-24T09:25:10;98383.00;;;20.60
12875;BMP180;6505;51.114;13.128;2023-04-24T09:27:42;98376.00;;;20.60
12875;BMP180;6505;51.114;13.128;2023-04-24T09:30:12;98381.00;;;20.60
12875;BMP180;6505;51.114;13.128;2023-04-24T09:32:43;98367.00;;;20.60
12875;BMP180;6505;51.114;13.128;2023-04-24T09:35:13;98378.00;;;20.60
12875;BMP180;6505;51.114;13.128;2023-04-24T09:37:43;98377.00;;;20.60
12875;BMP180;6505;51.114;13.128;2023-04-24T09:40:15;98372.00;;;20.60
12875;BMP180;6505;51.114;13.128;2023-04-24T09:42:44;98360.00;;;20.60
12875;BMP180;6505;51.114;13.128;2023-04-24T09:45:13;98355.00;;;20.70
12875;BMP180;6505;51.114;13.128;2023-04-24T09:47:43;98364.00;;;20.70
12875;BMP180;6505;51.114;13.128;2023-04-24T09:50:15;98354.00;;;20.70
12875;BMP180;6505;51.114;13.128;2023-04-24T09:52:56;98368.00;;;20.70
12875;BMP180;6505;51.114;13.128;2023-04-24T09:55:25;98359.00;;;20.70
12875;BMP180;6505;51.114;13.128;2023-04-24T09:57:57;98356.00;;;20.70
12875;BMP180;6505;51.114;13.128;2023-04-24T10:00:29;98359.00;;;20.80
12875;BMP180;6505;51.114;13.128;2023-04-24T10:03:00;98353.00;;;20.80
12875;BMP180;6505;51.114;13.128;2023-04-24T10:05:31;98357.00;;;20.80
12875;BMP180;6505;51.114;13.128;2023-04-24T10:08:04;98356.00;;;20.80
12875;BMP180;6505;51.114;13.128;2023-04-24T10:10:34;98353.00;;;20.80
12875;BMP180;6505;51.114;13.128;2023-04-24T10:13:05;98352.00;;;20.90
12875;BMP180;6505;51.114;13.128;2023-04-24T10:15:35;98356.00;;;20.90
12875;BMP180;6505;51.114;13.128;2023-04-24T10:18:05;98357.00;;;20.90
12875;BMP180;6505;51.114;13.128;2023-04-24T10:20:36;98360.00;;;20.90
12875;BMP180;6505;51.114;13.128;2023-04-24T10:23:05;98353.00;;;21.00
12875;BMP180;6505;51.114;13.128;2023-04-24T10:25:35;98355.00;;;21.00
12875;BMP180;6505;51.114;13.128;2023-04-24T10:28:04;98358.00;;;21.00
12875;BMP180;6505;51.114;13.128;2023-04-24T10:30:36;98346.00;;;21.00
12875;BMP180;6505;51.114;13.128;2023-04-24T10:33:08;98353.00;;;21.00
12875;BMP180;6505;51.114;13.128;2023-04-24T10:35:45;98361.00;;;21.00
12875;BMP180;6505;51.114;13.128;2023-04-24T10:38:22;98358.00;;;21.00
12875;BMP180;6505;51.114;13.128;2023-04-24T10:40:57;98351.00;;;21.00
12875;BMP180;6505;51.114;13.128;2023-04-24T10:43:25;98363.00;;;21.10
12875;BMP180;6505;51.114;13.128;2023-04-24T10:46:04;98370.00;;;21.00
12875;BMP180;6505;51.114;13.128;2023-04-24T10:48:34;98360.00;;;21.10
12875;BMP180;6505;51.114;13.128;2023-04-24T10:51:02;98371.00;;;21.10
12875;BMP180;6505;51.114;13.128;2023-04-24T10:53:30;98370.00;;;21.10
12875;BMP180;6505;51.114;13.128;2023-04-24T10:56:04;98377.00;;;21.10
12875;BMP180;6505;51.114;13.128;2023-04-24T10:58:42;98373.00;;;21.10
12875;BMP180;6505;51.114;13.128;2023-04-24T11:01:24;98378.00;;;21.00
12875;BMP180;6505;51.114;13.128;2023-04-24T11:03:57;98373.00;;;21.10
12875;BMP180;6505;51.114;13.128;2023-04-24T11:06:29;98365.00;;;21.10
12875;BMP180;6505;51.114;13.128;2023-04-24T11:09:03;98371.00;;;21.10
12875;BMP180;6505;51.114;13.128;2023-04-24T11:11:33;98362.00;;;21.10
12875;BMP180;6505;51.114;13.128;2023-04-24T11:14:04;98366.00;;;21.10
12875;BMP180;6505;51.114;13.128;2023-04-24T11:16:38;98374.00;;;21.10
12875;BMP180;6505;51.114;13.128;2023-04-24T11:19:10;98370.00;;;21.10
12875;BMP180;6505;51.114;13.128;2023-04-24T11:21:47;98357.00;;;21.10
12875;BMP180;6505;51.114;13.128;2023-04-24T11:24:30;98378.00;;;21.10
12875;BMP180;6505;51.114;13.128;2023-04-24T11:27:05;98378.00;;;21.10
12875;BMP180;6505;51.114;13.128;2023-04-24T11:29:46;98381.00;;;21.10
12875;BMP180;6505;51.114;13.128;2023-04-24T11:32:24;98376.00;;;21.10
12875;BMP180;6505;51.114;13.128;2023-04-24T11:34:55;98375.00;;;21.10
12875;BMP180;6505;51.114;13.128;2023-04-24T11:37:27;98382.00;;;21.10
12875;BMP180;6505;51.114;13.128;2023-04-24T11:39:58;98392.00;;;21.20
12875;BMP180;6505;51.114;13.128;2023-04-24T11:42:29;98382.00;;;21.20
12875;BMP180;6505;51.114;13.128;2023-04-24T11:45:01;98381.00;;;21.20
12875;BMP180;6505;51.114;13.128;2023-04-24T11:47:31;98399.00;;;21.20
12875;BMP180;6505;51.114;13.128;2023-04-24T11:50:04;98398.00;;;21.20
12875;BMP180;6505;51.114;13.128;2023-04-24T11:52:36;98405.00;;;21.20
12875;BMP180;6505;51.114;13.128;2023-04-24T11:55:07;98407.00;;;21.20
12875;BMP180;6505;51.114;13.128;2023-04-24T11:57:36;98406.00;;;21.20
12875;BMP180;6505;51.114;13.128;2023-04-24T12:00:06;98410.00;;;21.20
12875;BMP180;6505;51.114;13.128;2023-04-24T12:02:38;98404.00;;;21.30
12875;BMP180;6505;51.114;13.128;2023-04-24T12:05:08;98412.00;;;21.20
12875;BMP180;6505;51.114;13.128;2023-04-24T12:07:41;98419.00;;;21.20
12875;BMP180;6505;51.114;13.128;2023-04-24T12:10:10;98423.00;;;21.30
12875;BMP180;6505;51.114;13.128;2023-04-24T12:12:38;98422.00;;;21.30
12875;BMP180;6505;51.114;13.128;2023-04-24T12:15:08;98420.00;;;21.30
12875;BMP180;6505;51.114;13.128;2023-04-24T12:17:41;98408.00;;;21.30
12875;BMP180;6505;51.114;13.128;2023-04-24T12:20:13;98414.00;;;21.30
12875;BMP180;6505;51.114;13.128;2023-04-24T12:22:46;98416.00;;;21.30
12875;BMP180;6505;51.114;13.128;2023-04-24T12:25:16;98403.00;;;21.30
12875;BMP180;6505;51.114;13.128;2023-04-24T12:27:44;98414.00;;;21.40
12875;BMP180;6505;51.114;13.128;2023-04-24T12:30:16;98409.00;;;21.40
12875;BMP180;6505;51.114;13.128;2023-04-24T12:32:47;98416.00;;;21.40
12875;BMP180;6505;51.114;13.128;2023-04-24T12:35:22;98406.00;;;21.30
12875;BMP180;6505;51.114;13.128;2023-04-24T12:37:50;98393.00;;;21.40
12875;BMP180;6505;51.114;13.128;2023-04-24T12:40:21;98411.00;;;21.40
12875;BMP180;6505;51.114;13.128;2023-04-24T12:42:51;98420.00;;;21.40
12875;BMP180;6505;51.114;13.128;2023-04-24T12:45:21;98415.00;;;21.40
12875;BMP180;6505;51.114;13.128;2023-04-24T12:47:50;98405.00;;;21.40
12875;BMP180;6505;51.114;13.128;2023-04-24T12:50:19;98411.00;;;21.40
12875;BMP180;6505;51.114;13.128;2023-04-24T12:52:47;98406.00;;;21.40
12875;BMP180;6505;51.114;13.128;2023-04-24T12:55:15;98412.00;;;21.40
12875;BMP180;6505;51.114;13.128;2023-04-24T12:57:44;98415.00;;;21.50
12875;BMP180;6505;51.114;13.128;2023-04-24T13:00:13;98406.00;;;21.40
12875;BMP180;6505;51.114;13.128;2023-04-24T13:02:45;98405.00;;;21.50
12875;BMP180;6505;51.114;13.128;2023-04-24T13:05:13;98401.00;;;21.50
12875;BMP180;6505;51.114;13.128;2023-04-24T13:07:43;98407.00;;;21.50
12875;BMP180;6505;51.114;13.128;2023-04-24T13:10:11;98402.00;;;21.50
12875;BMP180;6505;51.114;13.128;2023-04-24T13:12:40;98411.00;;;21.50
12875;BMP180;6505;51.114;13.128;2023-04-24T13:15:08;98409.00;;;21.50
12875;BMP180;6505;51.114;13.128;2023-04-24T13:17:36;98403.00;;;21.50
12875;BMP180;6505;51.114;13.128;2023-04-24T13:20:06;98400.00;;;21.50
12875;BMP180;6505;51.114;13.128;2023-04-24T13:22:34;98401.00;;;21.50
12875;BMP180;6505;51.114;13.128;2023-04-24T13:25:06;98402.00;;;21.50
12875;BMP180;6505;51.114;13.128;2023-04-24T13:27:34;98391.00;;;21.50
12875;BMP180;6505;51.114;13.128;2023-04-24T13:30:03;98400.00;;;21.50
12875;BMP180;6505;51.114;13.128;2023-04-24T13:32:32;98390.00;;;21.50
12875;BMP180;6505;51.114;13.128;2023-04-24T13:35:02;98395.00;;;21.60
12875;BMP180;6505;51.114;13.128;2023-04-24T13:37:30;98388.00;;;21.60
12875;BMP180;6505;51.114;13.128;2023-04-24T13:39:58;98394.00;;;21.60
12875;BMP180;6505;51.114;13.128;2023-04-24T13:42:27;98381.00;;;21.60
12875;BMP180;6505;51.114;13.128;2023-04-24T13:44:56;98390.00;;;21.60
12875;BMP180;6505;51.114;13.128;2023-04-24T13:47:23;98389.00;;;21.60
12875;BMP180;6505;51.114;13.128;2023-04-24T13:49:51;98402.00;;;21.60
12875;BMP180;6505;51.114;13.128;2023-04-24T13:52:20;98396.00;;;21.60
12875;BMP180;6505;51.114;13.128;2023-04-24T13:54:48;98391.00;;;21.60
12875;BMP180;6505;51.114;13.128;2023-04-24T13:57:16;98395.00;;;21.60
12875;BMP180;6505;51.114;13.128;2023-04-24T13:59:45;98395.00;;;21.60
12875;BMP180;6505;51.114;13.128;2023-04-24T14:02:13;98392.00;;;21.60
12875;BMP180;6505;51.114;13.128;2023-04-24T14:04:41;98378.00;;;21.60
12875;BMP180;6505;51.114;13.128;2023-04-24T14:07:09;98398.00;;;21.60
12875;BMP180;6505;51.114;13.128;2023-04-24T14:09:37;98394.00;;;21.60
12875;BMP180;6505;51.114;13.128;2023-04-24T14:12:05;98392.00;;;21.60
12875;BMP180;6505;51.114;13.128;2023-04-24T14:14:33;98400.00;;;21.60
12875;BMP180;6505;51.114;13.128;2023-04-24T14:17:03;98392.00;;;21.60
12875;BMP180;6505;51.114;13.128;2023-04-24T14:19:31;98389.00;;;21.60
12875;BMP180;6505;51.114;13.128;2023-04-24T14:21:59;98393.00;;;21.60
12875;BMP180;6505;51.114;13.128;2023-04-24T14:24:27;98401.00;;;21.60